Time;durP1;ratioP1;P1;durP2;ratioP2;P2;SDS_P1;SDS_P2;PMS_P1;PMS_P2;Temp;Humidity;BMP_temperature;BMP_pressure;BME280_temperature;BME280_humidity;BME280_pressure;Samples;Min_cycle;Max_cycle;Signal;HPM_P1;HPM_P2
2022/04/18 00:01:28;;;;;;;3.97;3.00;;;;;;;;;;5006062;28;20054;-66
2022/04/18 00:03:55;;;;;;;3.85;3.00;;;;;;;;;;4994597;28;20133;-65
2022/04/18 00:06:21;;;;;;;4.57;3.30;;;;;;;;;;5001604;28;20104;-66
2022/04/18 00:08:47;;;;;;;3.92;3.53;;;;;;;;;;5014944;28;20045;-66
2022/04/18 00:11:13;;;;;;;4.57;3.42;;;;;;;;;;5015094;28;20042;-65
2022/04/18 00:13:39;;;;;;;4.20;3.10;;;;;;;;;;5015848;28;20421;-65
2022/04/18 00:16:05;;;;;;;3.95;3.22;;;;;;;;;;5015363;28;20064;-66
2022/04/18 00:18:31;;;;;;;3.80;3.40;;;;;;;;;;5003666;28;20552;-65
2022/04/18 00:20:57;;;;;;;3.50;3.20;;;;;;;;;;4996210;28;20145;-66
2022/04/18 00:23:23;;;;;;;3.97;3.30;;;;;;;;;;5014343;28;20042;-65
2022/04/18 00:25:49;;;;;;;3.53;3.22;;;;;;;;;;5004663;28;20517;-65
2022/04/18 00:28:15;;;;;;;4.38;3.40;;;;;;;;;;5011628;28;20081;-65
2022/04/18 00:30:42;;;;;;;3.75;3.33;;;;;;;;;;5015313;28;20073;-65
2022/04/18 00:33:09;;;;;;;3.85;3.15;;;;;;;;;;4997711;28;20042;-65
2022/04/18 00:35:35;;;;;;;3.75;3.17;;;;;;;;;;4995231;28;20046;-65
2022/04/18 00:38:01;;;;;;;4.07;3.42;;;;;;;;;;4997374;28;20083;-65
2022/04/18 00:40:29;;;;;;;3.75;3.13;;;;;;;;;;5010520;28;20158;-66
2022/04/18 00:43:02;;;;;;;3.90;3.33;;;;;;;;;;5014068;28;20046;-65
2022/04/18 00:45:28;;;;;;;3.53;3.17;;;;;;;;;;5010871;28;20046;-66
2022/04/18 00:47:54;;;;;;;3.92;3.40;;;;;;;;;;5001176;28;20045;-65
2022/04/18 00:50:20;;;;;;;3.90;3.50;;;;;;;;;;4996616;28;20050;-65
2022/04/18 00:52:47;;;;;;;3.60;3.17;;;;;;;;;;5007576;28;20099;-66
2022/04/18 00:55:14;;;;;;;3.80;3.40;;;;;;;;;;4995038;28;20050;-65
2022/04/18 00:57:40;;;;;;;4.18;3.67;;;;;;;;;;5004587;28;20140;-65
2022/04/18 01:00:06;;;;;;;4.18;3.40;;;;;;;;;;5008298;28;20192;-65
2022/04/18 01:02:32;;;;;;;5.05;3.97;;;;;;;;;;4995035;28;20120;-65
2022/04/18 01:04:58;;;;;;;3.83;3.28;;;;;;;;;;4995047;28;20517;-65
2022/04/18 01:07:24;;;;;;;4.28;3.50;;;;;;;;;;4996299;28;20042;-66
2022/04/18 01:09:50;;;;;;;4.22;3.50;;;;;;;;;;5012510;28;20386;-65
2022/04/18 01:12:16;;;;;;;4.15;3.60;;;;;;;;;;5005500;28;20046;-66
2022/04/18 01:14:48;;;;;;;4.00;3.50;;;;;;;;;;5011367;28;20152;-65
2022/04/18 01:17:15;;;;;;;3.75;3.33;;;;;;;;;;5013204;28;20424;-66
2022/04/18 01:19:41;;;;;;;4.07;3.67;;;;;;;;;;5014009;28;20034;-65
2022/04/18 01:22:12;;;;;;;4.80;3.78;;;;;;;;;;5013899;28;20050;-65
2022/04/18 01:30:08;;;;;;;4.18;3.67;;;;;;;;;;4994165;28;20050;-65
2022/04/18 01:32:34;;;;;;;4.00;3.60;;;;;;;;;;5008460;28;20450;-65
2022/04/18 01:35:00;;;;;;;4.45;3.58;;;;;;;;;;5013029;28;20069;-66
2022/04/18 01:37:26;;;;;;;3.83;3.30;;;;;;;;;;5003738;28;20450;-65
2022/04/18 01:39:52;;;;;;;3.80;3.40;;;;;;;;;;5011450;28;20042;-65
2022/04/18 01:42:18;;;;;;;4.63;3.60;;;;;;;;;;5013297;28;20050;-65
2022/04/18 01:44:44;;;;;;;4.82;3.60;;;;;;;;;;4997633;28;20046;-65
2022/04/18 01:47:10;;;;;;;4.85;3.72;;;;;;;;;;4993691;28;20054;-66
2022/04/18 01:49:36;;;;;;;4.55;3.95;;;;;;;;;;4993732;28;20068;-65
2022/04/18 01:52:02;;;;;;;3.67;3.20;;;;;;;;;;5001380;28;20058;-65
2022/04/18 01:54:28;;;;;;;4.30;3.70;;;;;;;;;;5011146;28;20584;-65
2022/04/18 01:56:55;;;;;;;5.65;3.63;;;;;;;;;;4993965;28;20129;-65
2022/04/18 01:59:21;;;;;;;3.75;3.30;;;;;;;;;;5003455;28;20058;-65
2022/04/18 02:01:47;;;;;;;4.28;3.60;;;;;;;;;;5001579;28;20068;-65
2022/04/18 02:04:13;;;;;;;5.22;3.65;;;;;;;;;;5006737;28;20042;-66
2022/04/18 02:06:39;;;;;;;4.28;3.75;;;;;;;;;;5003119;28;20567;-66
2022/04/18 02:09:05;;;;;;;5.93;3.90;;;;;;;;;;5012514;28;20085;-65
2022/04/18 02:11:31;;;;;;;5.07;3.90;;;;;;;;;;5011814;28;20046;-66
2022/04/18 02:13:58;;;;;;;4.20;3.70;;;;;;;;;;5009047;28;20432;-65
2022/04/18 02:16:24;;;;;;;4.50;3.90;;;;;;;;;;4993338;28;20096;-65
2022/04/18 02:18:50;;;;;;;4.07;3.58;;;;;;;;;;4995766;28;20046;-65
2022/04/18 02:21:17;;;;;;;4.70;3.97;;;;;;;;;;5000154;28;20042;-66
2022/04/18 02:23:43;;;;;;;4.47;3.60;;;;;;;;;;5011843;28;20045;-66
2022/04/18 02:26:09;;;;;;;4.63;3.90;;;;;;;;;;5011964;28;20065;-65
2022/04/18 02:28:36;;;;;;;4.75;3.80;;;;;;;;;;5012619;28;20038;-66
2022/04/18 02:31:02;;;;;;;4.15;3.75;;;;;;;;;;5012880;28;20046;-65
2022/04/18 02:33:28;;;;;;;4.22;3.80;;;;;;;;;;5012948;28;20053;-66
2022/04/18 02:35:54;;;;;;;4.38;3.97;;;;;;;;;;5013138;28;20050;-65
2022/04/18 02:38:20;;;;;;;4.43;3.97;;;;;;;;;;5012821;28;20388;-65
2022/04/18 02:40:47;;;;;;;4.40;3.97;;;;;;;;;;5012640;28;20045;-65
2022/04/18 02:43:13;;;;;;;4.22;3.83;;;;;;;;;;5011650;28;20136;-66
2022/04/18 02:45:39;;;;;;;5.20;4.22;;;;;;;;;;5012958;28;20042;-65
2022/04/18 02:48:05;;;;;;;4.65;4.05;;;;;;;;;;5012372;28;20420;-65
2022/04/18 02:50:31;;;;;;;4.55;3.95;;;;;;;;;;5011912;28;20046;-65
2022/04/18 02:52:57;;;;;;;5.50;4.32;;;;;;;;;;5012915;28;20049;-65
2022/04/18 02:55:25;;;;;;;4.53;3.95;;;;;;;;;;5014305;28;20048;-65
2022/04/18 02:57:51;;;;;;;5.07;4.03;;;;;;;;;;5016530;28;20481;-65
2022/04/18 03:00:17;;;;;;;4.85;4.07;;;;;;;;;;5017013;28;20048;-65
2022/04/18 03:02:43;;;;;;;4.78;4.28;;;;;;;;;;5016687;28;20045;-65
2022/04/18 03:05:10;;;;;;;5.75;3.95;;;;;;;;;;5016702;28;20042;-65
2022/04/18 03:07:36;;;;;;;5.22;4.30;;;;;;;;;;5016734;28;20038;-65
2022/04/18 03:10:03;;;;;;;5.18;4.18;;;;;;;;;;5016395;28;20049;-65
2022/04/18 03:12:29;;;;;;;4.20;3.80;;;;;;;;;;5016235;28;20042;-65
2022/04/18 03:14:55;;;;;;;4.88;4.47;;;;;;;;;;5016391;28;20054;-65
2022/04/18 03:17:21;;;;;;;4.50;4.07;;;;;;;;;;5016157;28;20045;-65
2022/04/18 03:19:47;;;;;;;5.03;4.30;;;;;;;;;;5016503;28;20038;-65
2022/04/18 03:22:13;;;;;;;4.75;4.25;;;;;;;;;;5016128;28;20042;-65
2022/04/18 03:24:39;;;;;;;4.53;4.13;;;;;;;;;;5016011;28;20041;-65
2022/04/18 03:27:05;;;;;;;5.18;4.38;;;;;;;;;;5016108;28;20050;-65
2022/04/18 03:29:32;;;;;;;4.53;4.13;;;;;;;;;;5015837;28;20396;-65
2022/04/18 03:31:58;;;;;;;4.57;3.92;;;;;;;;;;5016357;28;20121;-65
2022/04/18 03:34:24;;;;;;;5.38;4.40;;;;;;;;;;5016134;28;20128;-65
2022/04/18 03:39:50;;;;;;;5.50;4.47;;;;;;;;;;5015771;28;20448;-65
2022/04/18 03:42:17;;;;;;;5.13;4.45;;;;;;;;;;5015650;28;20080;-65
2022/04/18 03:44:44;;;;;;;4.95;4.32;;;;;;;;;;5015994;28;20045;-65
2022/04/18 03:47:11;;;;;;;5.10;4.57;;;;;;;;;;5015714;28;20042;-65
2022/04/18 03:49:37;;;;;;;5.00;4.50;;;;;;;;;;5016002;28;20071;-65
2022/04/18 03:52:03;;;;;;;6.05;4.50;;;;;;;;;;5015603;28;20402;-65
2022/04/18 03:54:29;;;;;;;5.22;4.30;;;;;;;;;;5015545;28;20081;-65
2022/04/18 03:56:55;;;;;;;5.78;4.70;;;;;;;;;;5015407;28;20147;-65
2022/04/18 03:59:21;;;;;;;5.18;4.30;;;;;;;;;;5015084;28;20046;-65
2022/04/18 04:01:47;;;;;;;5.07;4.57;;;;;;;;;;5015769;28;20049;-65
2022/04/18 04:04:13;;;;;;;5.20;4.22;;;;;;;;;;5015408;28;20521;-65
2022/04/18 04:06:39;;;;;;;5.05;4.35;;;;;;;;;;5014324;28;20124;-65
2022/04/18 04:09:05;;;;;;;5.47;4.70;;;;;;;;;;5015084;28;20512;-65
2022/04/18 04:11:31;;;;;;;4.88;4.38;;;;;;;;;;5015219;28;20078;-65
2022/04/18 04:13:59;;;;;;;6.05;4.40;;;;;;;;;;5015305;28;20046;-65
2022/04/18 04:16:25;;;;;;;4.90;4.40;;;;;;;;;;5015484;28;20046;-65
2022/04/18 04:18:51;;;;;;;6.18;4.97;;;;;;;;;;5015403;28;20064;-66
2022/04/18 04:21:17;;;;;;;5.75;4.43;;;;;;;;;;5015229;28;20096;-65
2022/04/18 04:23:43;;;;;;;5.13;4.57;;;;;;;;;;5015248;28;20056;-66
2022/04/18 04:26:09;;;;;;;5.20;4.70;;;;;;;;;;5014571;28;20042;-66
2022/04/18 04:28:35;;;;;;;5.88;4.80;;;;;;;;;;5015073;28;20053;-65
2022/04/18 04:31:04;;;;;;;6.03;4.50;;;;;;;;;;5015001;28;20389;-65
2022/04/18 04:33:33;;;;;;;5.53;4.95;;;;;;;;;;5014943;28;20066;-65
2022/04/18 04:35:59;;;;;;;6.13;4.90;;;;;;;;;;5014942;28;20412;-65
2022/04/18 04:38:26;;;;;;;5.95;4.75;;;;;;;;;;5014016;28;20493;-66
2022/04/18 04:40:55;;;;;;;5.20;4.68;;;;;;;;;;5000459;28;20038;-66
2022/04/18 04:43:21;;;;;;;5.68;5.05;;;;;;;;;;5014445;28;20573;-65
2022/04/18 04:45:47;;;;;;;5.40;4.90;;;;;;;;;;5014766;28;20057;-65
2022/04/18 04:48:13;;;;;;;4.90;4.40;;;;;;;;;;5014598;28;20401;-65
2022/04/18 04:50:41;;;;;;;5.45;4.75;;;;;;;;;;5014586;28;20054;-65
2022/04/18 04:53:08;;;;;;;5.65;4.88;;;;;;;;;;5014183;28;20115;-66
2022/04/18 04:55:36;;;;;;;5.32;4.40;;;;;;;;;;5014699;28;20103;-65
2022/04/18 04:58:02;;;;;;;5.35;4.85;;;;;;;;;;5007916;28;20061;-65
2022/04/18 05:00:28;;;;;;;5.40;4.70;;;;;;;;;;5014434;28;20050;-65
2022/04/18 05:02:57;;;;;;;5.57;5.00;;;;;;;;;;5014256;28;20052;-65
2022/04/18 05:05:23;;;;;;;6.65;4.63;;;;;;;;;;5014508;28;20037;-66
2022/04/18 05:07:49;;;;;;;5.25;4.22;;;;;;;;;;5014452;28;20049;-66
2022/04/18 05:10:16;;;;;;;5.10;4.22;;;;;;;;;;5013912;28;20482;-66
2022/04/18 05:12:42;;;;;;;5.13;4.63;;;;;;;;;;5014047;28;20528;-65
2022/04/18 05:15:08;;;;;;;5.85;4.80;;;;;;;;;;5014096;28;20054;-65
2022/04/18 05:17:34;;;;;;;5.30;4.57;;;;;;;;;;5013892;28;20056;-65
2022/04/18 05:20:03;;;;;;;5.68;4.38;;;;;;;;;;5013583;28;20045;-65
2022/04/18 05:22:29;;;;;;;5.75;4.30;;;;;;;;;;5013786;28;20057;-65
2022/04/18 05:24:55;;;;;;;4.70;4.22;;;;;;;;;;5014018;28;20727;-65
2022/04/18 05:27:22;;;;;;;5.07;4.20;;;;;;;;;;5013472;28;20501;-65
2022/04/18 05:29:48;;;;;;;6.53;4.63;;;;;;;;;;5014003;28;20100;-65
2022/04/18 05:32:14;;;;;;;5.10;4.38;;;;;;;;;;5013774;28;20065;-66
2022/04/18 05:34:41;;;;;;;6.65;4.65;;;;;;;;;;5013756;28;20374;-65
2022/04/18 05:37:07;;;;;;;4.80;4.22;;;;;;;;;;5013919;28;20051;-66
2022/04/18 05:39:34;;;;;;;4.63;4.13;;;;;;;;;;5004573;28;20055;-66
2022/04/18 05:42:00;;;;;;;5.05;4.30;;;;;;;;;;5011510;28;20074;-65
2022/04/18 05:44:26;;;;;;;4.95;4.28;;;;;;;;;;5013395;28;20498;-65
2022/04/18 05:46:52;;;;;;;5.25;4.40;;;;;;;;;;5013593;28;20052;-65
2022/04/18 05:49:18;;;;;;;5.15;4.32;;;;;;;;;;5013323;28;20042;-66
2022/04/18 05:51:44;;;;;;;5.43;4.05;;;;;;;;;;5013800;28;20564;-65
2022/04/18 05:54:10;;;;;;;5.00;4.50;;;;;;;;;;5013475;28;20219;-66
2022/04/18 05:56:36;;;;;;;5.43;4.32;;;;;;;;;;5013063;28;20038;-66
2022/04/18 05:59:03;;;;;;;5.05;4.25;;;;;;;;;;5011407;28;20144;-65
2022/04/18 06:01:29;;;;;;;4.85;4.22;;;;;;;;;;5013389;28;20092;-65
2022/04/18 06:03:55;;;;;;;4.72;4.00;;;;;;;;;;5013149;28;20077;-66
2022/04/18 06:06:21;;;;;;;4.40;3.97;;;;;;;;;;5013445;28;20052;-65
2022/04/18 06:08:48;;;;;;;4.40;3.92;;;;;;;;;;5013018;28;20046;-65
2022/04/18 06:11:14;;;;;;;4.63;4.22;;;;;;;;;;5012962;28;20045;-66
2022/04/18 06:13:40;;;;;;;5.20;4.30;;;;;;;;;;5013000;28;20074;-65
2022/04/18 06:16:06;;;;;;;5.10;4.25;;;;;;;;;;5013629;28;20045;-65
2022/04/18 06:18:33;;;;;;;4.90;4.03;;;;;;;;;;5013060;28;20088;-66
2022/04/18 06:20:59;;;;;;;5.40;4.25;;;;;;;;;;5011680;28;20053;-66
2022/04/18 06:23:25;;;;;;;5.95;4.30;;;;;;;;;;5012538;28;20125;-66
2022/04/18 06:25:51;;;;;;;4.85;3.90;;;;;;;;;;5017168;28;20041;-65
2022/04/18 06:28:19;;;;;;;9.05;5.22;;;;;;;;;;5013499;28;20038;-65
2022/04/18 06:30:45;;;;;;;12.75;6.07;;;;;;;;;;5007793;28;20516;-66
2022/04/18 06:33:11;;;;;;;12.70;4.95;;;;;;;;;;5008868;28;20200;-65
2022/04/18 06:35:38;;;;;;;8.60;5.15;;;;;;;;;;5013276;28;20261;-66
2022/04/18 06:38:04;;;;;;;9.45;4.78;;;;;;;;;;5011177;28;20058;-67
2022/04/18 06:40:30;;;;;;;7.90;4.50;;;;;;;;;;5012478;28;20117;-65
2022/04/18 06:42:56;;;;;;;9.05;4.57;;;;;;;;;;5010482;28;20192;-65
2022/04/18 06:45:22;;;;;;;9.32;5.05;;;;;;;;;;5013890;28;20489;-66
2022/04/18 06:47:48;;;;;;;12.73;4.40;;;;;;;;;;5032736;28;20413;-65
2022/04/18 06:50:14;;;;;;;8.88;4.70;;;;;;;;;;5031981;28;20041;-65
2022/04/18 06:52:41;;;;;;;8.68;4.95;;;;;;;;;;5012666;28;20046;-65
2022/04/18 06:55:08;;;;;;;7.13;4.80;;;;;;;;;;5022379;28;20052;-65
2022/04/18 06:57:34;;;;;;;7.70;4.72;;;;;;;;;;5015866;28;20058;-66
2022/04/18 07:00:00;;;;;;;7.25;4.72;;;;;;;;;;5012352;28;20409;-65
2022/04/18 07:02:26;;;;;;;8.13;4.30;;;;;;;;;;5026408;28;20045;-65
2022/04/18 07:04:53;;;;;;;8.93;4.45;;;;;;;;;;5032612;28;20053;-65
2022/04/18 07:07:19;;;;;;;5.80;4.68;;;;;;;;;;5015874;28;20493;-65
2022/04/18 07:09:45;;;;;;;7.40;5.15;;;;;;;;;;5011725;28;20480;-66
2022/04/18 07:12:11;;;;;;;7.28;5.00;;;;;;;;;;5011361;28;20126;-66
2022/04/18 07:14:38;;;;;;;7.80;4.45;;;;;;;;;;5012660;28;20050;-65
2022/04/18 07:17:04;;;;;;;7.40;4.63;;;;;;;;;;5012545;28;20086;-67
2022/04/18 07:19:31;;;;;;;6.03;4.20;;;;;;;;;;5012759;28;20140;-65
2022/04/18 07:21:57;;;;;;;7.55;4.72;;;;;;;;;;5013014;28;20053;-66
2022/04/18 07:24:24;;;;;;;7.55;4.68;;;;;;;;;;5012017;28;20050;-66
2022/04/18 07:26:50;;;;;;;7.65;4.70;;;;;;;;;;5012480;28;20042;-65
2022/04/18 07:29:16;;;;;;;8.70;5.10;;;;;;;;;;5012195;28;20049;-66
2022/04/18 07:31:42;;;;;;;7.78;4.95;;;;;;;;;;5012471;28;20413;-66
2022/04/18 07:34:08;;;;;;;8.35;4.72;;;;;;;;;;5011400;28;20079;-66
2022/04/18 07:36:34;;;;;;;9.65;5.05;;;;;;;;;;5012277;28;20413;-66
2022/04/18 07:39:00;;;;;;;18.20;5.40;;;;;;;;;;5012562;28;20523;-66
2022/04/18 07:41:27;;;;;;;8.55;5.05;;;;;;;;;;5006659;28;20042;-65
2022/04/18 07:43:53;;;;;;;7.43;4.90;;;;;;;;;;5015696;28;20042;-66
2022/04/18 07:46:20;;;;;;;10.65;4.90;;;;;;;;;;5015023;28;20413;-66
2022/04/18 07:48:47;;;;;;;7.78;4.78;;;;;;;;;;5014998;28;20042;-64
2022/04/18 07:51:34;;;;;;;8.98;4.55;;;;;;;;;;5013660;28;20131;-65
2022/04/18 07:54:01;;;;;;;8.90;4.93;;;;;;;;;;5007495;28;20101;-65
2022/04/18 07:56:27;;;;;;;9.43;4.85;;;;;;;;;;5015903;28;20057;-64
2022/04/18 07:58:53;;;;;;;7.45;4.40;;;;;;;;;;5015462;28;20058;-65
2022/04/18 08:01:20;;;;;;;5.90;4.50;;;;;;;;;;5015470;28;20049;-65
2022/04/18 08:03:46;;;;;;;7.55;4.22;;;;;;;;;;5014977;28;20397;-66
2022/04/18 08:06:13;;;;;;;8.30;4.70;;;;;;;;;;5013486;28;20509;-67
2022/04/18 08:08:39;;;;;;;8.02;4.38;;;;;;;;;;5015659;28;20038;-66
2022/04/18 08:11:05;;;;;;;12.45;5.47;;;;;;;;;;5015496;28;20050;-67
2022/04/18 08:13:31;;;;;;;8.15;5.20;;;;;;;;;;5015347;28;20038;-65
2022/04/18 08:15:58;;;;;;;9.02;4.95;;;;;;;;;;5015059;28;20045;-66
2022/04/18 08:18:25;;;;;;;8.27;5.07;;;;;;;;;;5015366;28;20099;-66
2022/04/18 08:20:52;;;;;;;7.72;4.88;;;;;;;;;;5014934;28;20049;-65
2022/04/18 08:23:18;;;;;;;7.00;4.95;;;;;;;;;;5014953;28;20408;-66
2022/04/18 08:25:44;;;;;;;6.70;4.72;;;;;;;;;;5015197;28;20042;-66
2022/04/18 08:28:11;;;;;;;6.55;5.47;;;;;;;;;;5014497;28;20034;-66
2022/04/18 08:30:37;;;;;;;5.70;5.10;;;;;;;;;;5014666;28;20061;-66
2022/04/18 08:33:03;;;;;;;7.65;6.40;;;;;;;;;;5015092;28;20042;-66
2022/04/18 08:35:32;;;;;;;6.88;5.80;;;;;;;;;;5027996;28;20050;-66
2022/04/18 08:37:58;;;;;;;6.72;5.70;;;;;;;;;;5014615;28;20053;-66
2022/04/18 08:40:24;;;;;;;7.82;6.15;;;;;;;;;;5014876;28;20049;-66
2022/04/18 08:42:51;;;;;;;8.57;5.88;;;;;;;;;;5014396;28;20038;-66
2022/04/18 08:45:17;;;;;;;7.85;6.68;;;;;;;;;;5014886;28;20121;-66
2022/04/18 08:53:16;;;;;;;7.00;6.28;;;;;;;;;;5014088;28;20050;-65
2022/04/18 08:55:42;;;;;;;8.35;5.88;;;;;;;;;;5013567;28;20502;-66
2022/04/18 08:58:11;;;;;;;10.98;6.20;;;;;;;;;;5013871;28;20485;-66
2022/04/18 09:00:38;;;;;;;6.15;5.03;;;;;;;;;;5013081;28;20080;-66
2022/04/18 09:03:04;;;;;;;10.50;5.88;;;;;;;;;;4994849;28;20050;-66
2022/04/18 09:05:35;;;;;;;9.45;5.68;;;;;;;;;;5004836;28;20037;-66
2022/04/18 09:08:03;;;;;;;7.75;5.50;;;;;;;;;;5021484;28;20046;-65
2022/04/18 09:10:29;;;;;;;6.78;6.00;;;;;;;;;;5029898;28;20057;-65
2022/04/18 09:13:05;;;;;;;9.88;5.13;;;;;;;;;;5014007;28;20049;-64
2022/04/18 09:15:35;;;;;;;6.53;5.40;;;;;;;;;;5014113;28;20404;-65
2022/04/18 09:18:15;;;;;;;8.25;4.97;;;;;;;;;;4999478;28;20046;-64
2022/04/18 09:20:42;;;;;;;9.63;4.95;;;;;;;;;;4999565;28;20046;-64
2022/04/18 09:23:19;;;;;;;7.82;4.72;;;;;;;;;;5010781;28;20042;-64
2022/04/18 09:25:45;;;;;;;8.95;5.20;;;;;;;;;;5011462;28;20408;-65
2022/04/18 09:28:12;;;;;;;8.30;5.03;;;;;;;;;;5007600;28;20527;-65
2022/04/18 09:30:38;;;;;;;7.00;5.03;;;;;;;;;;5014318;28;20065;-65
2022/04/18 09:33:06;;;;;;;6.70;4.60;;;;;;;;;;5029413;28;20440;-64
2022/04/18 09:35:32;;;;;;;8.68;4.90;;;;;;;;;;5009426;28;20050;-65
2022/04/18 09:38:02;;;;;;;8.55;4.50;;;;;;;;;;5013613;28;20120;-65
2022/04/18 09:40:31;;;;;;;8.93;5.03;;;;;;;;;;5013744;28;20045;-65
2022/04/18 09:42:57;;;;;;;8.30;4.57;;;;;;;;;;5014094;28;20037;-65
2022/04/18 09:45:23;;;;;;;7.45;4.55;;;;;;;;;;5014011;28;20041;-65
2022/04/18 09:47:55;;;;;;;7.72;4.57;;;;;;;;;;5012698;28;20179;-65
2022/04/18 09:53:08;;;;;;;8.98;6.13;;;;;;;;;;5012258;28;20054;-65
2022/04/18 09:55:34;;;;;;;10.73;6.72;;;;;;;;;;5013673;28;20053;-66
2022/04/18 09:58:04;;;;;;;10.98;6.78;;;;;;;;;;5013287;28;20441;-65
2022/04/18 10:00:30;;;;;;;11.77;6.82;;;;;;;;;;5013602;28;20053;-65
2022/04/18 10:02:59;;;;;;;12.63;6.63;;;;;;;;;;5012243;28;20041;-67
2022/04/18 10:05:27;;;;;;;11.05;6.43;;;;;;;;;;5012583;28;20548;-67
2022/04/18 10:07:53;;;;;;;9.43;5.68;;;;;;;;;;5013425;28;20116;-66
2022/04/18 10:10:20;;;;;;;13.63;6.22;;;;;;;;;;5013504;28;20128;-66
2022/04/18 10:12:46;;;;;;;9.50;5.68;;;;;;;;;;5013376;28;20082;-65
2022/04/18 10:15:12;;;;;;;8.77;6.78;;;;;;;;;;5013472;28;20053;-64
2022/04/18 10:17:39;;;;;;;7.35;6.15;;;;;;;;;;5012825;28;20100;-64
2022/04/18 10:20:14;;;;;;;7.25;6.40;;;;;;;;;;5013148;28;20417;-64
2022/04/18 10:22:40;;;;;;;7.68;6.88;;;;;;;;;;5012683;28;20509;-64
2022/04/18 10:25:06;;;;;;;6.95;6.20;;;;;;;;;;5013220;28;20045;-65
2022/04/18 10:27:52;;;;;;;9.60;6.63;;;;;;;;;;5013229;28;20040;-65
2022/04/18 10:30:18;;;;;;;6.70;6.00;;;;;;;;;;5013129;28;20113;-65
2022/04/18 10:32:46;;;;;;;7.25;6.35;;;;;;;;;;5013215;28;20045;-65
2022/04/18 10:35:13;;;;;;;8.23;5.78;;;;;;;;;;5013152;28;20099;-65
2022/04/18 10:37:42;;;;;;;9.15;5.40;;;;;;;;;;5012830;28;20065;-66
2022/04/18 10:40:08;;;;;;;6.72;5.00;;;;;;;;;;5012198;28;20042;-65
2022/04/18 10:42:35;;;;;;;8.10;5.20;;;;;;;;;;5013247;28;20052;-64
2022/04/18 10:45:09;;;;;;;5.70;4.43;;;;;;;;;;5013454;28;20096;-64
2022/04/18 10:47:53;;;;;;;6.82;4.60;;;;;;;;;;5012776;28;20048;-66
2022/04/18 10:50:20;;;;;;;6.82;4.60;;;;;;;;;;5013314;28;20042;-65
2022/04/18 10:53:24;;;;;;;5.68;5.00;;;;;;;;;;5012680;28;20218;-65
2022/04/18 10:55:53;;;;;;;5.85;4.90;;;;;;;;;;4971492;28;20141;-65
2022/04/18 10:58:24;;;;;;;5.13;4.00;;;;;;;;;;4971494;28;20403;-65
2022/04/18 11:00:51;;;;;;;5.18;4.10;;;;;;;;;;4971322;28;20051;-65
2022/04/18 11:03:38;;;;;;;6.95;3.95;;;;;;;;;;4971475;28;20126;-65
2022/04/18 11:06:11;;;;;;;5.05;3.90;;;;;;;;;;4971628;28;20084;-65
2022/04/18 11:08:38;;;;;;;4.68;3.60;;;;;;;;;;4971616;28;20055;-65
2022/04/18 11:11:05;;;;;;;5.22;3.92;;;;;;;;;;4971677;28;20082;-65
2022/04/18 11:13:32;;;;;;;5.20;3.72;;;;;;;;;;4971638;28;20050;-65
2022/04/18 11:16:18;;;;;;;6.25;3.88;;;;;;;;;;4968117;28;20557;-65
2022/04/18 11:18:44;;;;;;;;;;;;;;;;;;4946957;29;20047;-66
2022/04/18 11:21:10;;;;;;;6.20;3.60;;;;;;;;;;4956030;29;19922;-65
2022/04/18 11:23:36;;;;;;;9.57;3.85;;;;;;;;;;4958780;28;20079;-65
2022/04/18 11:26:03;;;;;;;5.30;3.50;;;;;;;;;;4986793;28;20050;-65
2022/04/18 11:28:37;;;;;;;6.30;3.58;;;;;;;;;;5015027;28;20050;-65
2022/04/18 11:31:17;;;;;;;4.95;3.53;;;;;;;;;;5015744;28;20046;-65
2022/04/18 11:33:44;;;;;;;7.10;3.38;;;;;;;;;;5015006;28;20042;-65
2022/04/18 11:36:13;;;;;;;6.97;3.85;;;;;;;;;;5016217;28;20056;-66
2022/04/18 11:38:40;;;;;;;6.03;3.50;;;;;;;;;;5016135;28;20104;-66
2022/04/18 11:41:15;;;;;;;8.20;3.83;;;;;;;;;;5015729;28;20046;-65
2022/04/18 11:43:41;;;;;;;6.13;3.67;;;;;;;;;;5016319;28;20073;-65
2022/04/18 11:46:09;;;;;;;7.28;3.50;;;;;;;;;;5015374;28;20042;-65
2022/04/18 11:48:39;;;;;;;5.10;3.20;;;;;;;;;;5014952;28;20093;-65
2022/04/18 11:51:08;;;;;;;5.60;3.65;;;;;;;;;;5015803;28;20562;-65
2022/04/18 11:53:35;;;;;;;6.88;3.50;;;;;;;;;;5015769;28;20489;-66
2022/04/18 11:56:05;;;;;;;6.22;3.40;;;;;;;;;;5023279;28;20107;-66
2022/04/18 11:58:35;;;;;;;4.10;2.88;;;;;;;;;;5035390;28;20099;-66
2022/04/18 12:06:45;;;;;;;5.43;3.38;;;;;;;;;;5001943;28;20452;-66
2022/04/18 12:09:12;;;;;;;4.63;3.58;;;;;;;;;;5015739;28;20041;-66
2022/04/18 12:11:38;;;;;;;3.50;2.95;;;;;;;;;;5015409;28;20052;-66
2022/04/18 12:14:04;;;;;;;5.38;3.67;;;;;;;;;;5015317;28;20130;-66
2022/04/18 12:16:35;;;;;;;4.15;3.25;;;;;;;;;;5014899;28;20406;-66
2022/04/18 12:19:01;;;;;;;4.95;3.15;;;;;;;;;;5015338;28;20576;-66
2022/04/18 12:21:27;;;;;;;4.53;2.97;;;;;;;;;;5015668;28;20045;-65
2022/04/18 12:23:55;;;;;;;3.35;2.85;;;;;;;;;;5015294;28;20045;-66
2022/04/18 12:26:23;;;;;;;5.20;3.20;;;;;;;;;;5015131;28;20042;-65
2022/04/18 12:28:50;;;;;;;5.03;3.10;;;;;;;;;;5014655;28;20046;-66
2022/04/18 12:31:16;;;;;;;3.55;3.08;;;;;;;;;;5014852;28;20045;-65
2022/04/18 12:33:48;;;;;;;4.20;3.03;;;;;;;;;;5015053;28;20046;-65
2022/04/18 12:36:28;;;;;;;4.78;3.25;;;;;;;;;;5015313;28;20108;-65
2022/04/18 12:38:54;;;;;;;3.88;3.00;;;;;;;;;;5014987;28;20517;-65
2022/04/18 12:41:27;;;;;;;4.53;3.05;;;;;;;;;;5014678;28;20520;-65
2022/04/18 12:43:53;;;;;;;3.75;3.00;;;;;;;;;;5014877;28;20073;-66
2022/04/18 12:46:24;;;;;;;3.20;2.80;;;;;;;;;;5014279;28;20033;-66
2022/04/18 12:48:51;;;;;;;3.60;2.70;;;;;;;;;;5014294;28;20125;-65
2022/04/18 12:51:18;;;;;;;4.78;3.22;;;;;;;;;;5014777;28;20046;-66
2022/04/18 12:53:47;;;;;;;3.90;2.85;;;;;;;;;;5014559;28;20046;-66
2022/04/18 12:56:20;;;;;;;3.60;2.90;;;;;;;;;;5005756;28;20049;-66
2022/04/18 12:58:46;;;;;;;4.25;3.00;;;;;;;;;;4995550;28;20062;-65
2022/04/18 13:01:20;;;;;;;7.15;3.35;;;;;;;;;;4995228;28;20093;-66
2022/04/18 13:03:47;;;;;;;3.80;2.93;;;;;;;;;;4995435;28;20390;-66
2022/04/18 13:06:14;;;;;;;6.45;3.25;;;;;;;;;;5006876;28;20481;-66
2022/04/18 13:08:40;;;;;;;4.68;2.75;;;;;;;;;;5015039;28;20133;-66
2022/04/18 13:11:07;;;;;;;5.93;2.80;;;;;;;;;;5015923;28;20057;-66
2022/04/18 13:13:33;;;;;;;5.60;2.95;;;;;;;;;;5014795;28;20042;-66
2022/04/18 13:16:19;;;;;;;3.92;2.75;;;;;;;;;;5014988;28;20046;-66
2022/04/18 13:18:45;;;;;;;5.28;2.95;;;;;;;;;;5014765;28;20041;-65
2022/04/18 13:21:11;;;;;;;4.82;2.75;;;;;;;;;;5016687;28;20038;-66
2022/04/18 13:23:37;;;;;;;6.30;2.90;;;;;;;;;;5014528;28;20050;-66
2022/04/18 13:26:03;;;;;;;4.30;2.88;;;;;;;;;;5014075;28;20064;-66
2022/04/18 13:28:29;;;;;;;5.50;2.83;;;;;;;;;;5014178;28;20042;-65
2022/04/18 13:30:55;;;;;;;5.20;2.70;;;;;;;;;;5013501;28;20099;-65
2022/04/18 13:33:21;;;;;;;4.45;3.03;;;;;;;;;;5014427;28;20042;-65
2022/04/18 13:38:33;;;;;;;5.80;2.90;;;;;;;;;;5013691;28;20053;-66
2022/04/18 13:40:59;;;;;;;5.22;2.72;;;;;;;;;;5013918;28;20045;-66
2022/04/18 13:43:25;;;;;;;3.25;2.35;;;;;;;;;;5014203;28;20057;-66
2022/04/18 13:45:51;;;;;;;4.32;2.80;;;;;;;;;;5014212;28;20055;-65
2022/04/18 13:48:18;;;;;;;5.13;2.70;;;;;;;;;;5013312;28;20148;-66
2022/04/18 13:50:44;;;;;;;4.60;2.60;;;;;;;;;;5015075;28;20085;-65
2022/04/18 13:53:10;;;;;;;3.28;2.53;;;;;;;;;;5013965;28;20096;-66
2022/04/18 13:55:36;;;;;;;4.90;2.80;;;;;;;;;;5013069;28;20116;-66
2022/04/18 13:58:02;;;;;;;5.75;2.92;;;;;;;;;;5013951;28;20069;-65
2022/04/18 14:00:28;;;;;;;3.15;2.30;;;;;;;;;;5029004;28;20104;-65
2022/04/18 14:02:55;;;;;;;6.28;3.20;;;;;;;;;;5013365;28;20057;-65
2022/04/18 14:05:22;;;;;;;4.95;2.60;;;;;;;;;;5012256;28;20078;-65
2022/04/18 14:07:48;;;;;;;4.25;2.70;;;;;;;;;;5013358;28;20085;-65
2022/04/18 14:10:14;;;;;;;3.05;2.35;;;;;;;;;;5013800;28;20053;-66
2022/04/18 14:12:40;;;;;;;3.72;2.50;;;;;;;;;;5013627;28;20038;-66
2022/04/18 14:20:38;;;;;;;3.58;2.42;;;;;;;;;;5013488;28;20050;-65
2022/04/18 14:23:04;;;;;;;3.55;2.40;;;;;;;;;;5013168;28;20050;-65
2022/04/18 14:25:31;;;;;;;3.45;2.40;;;;;;;;;;5012819;28;20037;-65
2022/04/18 14:27:57;;;;;;;4.20;2.20;;;;;;;;;;5013284;28;20515;-66
2022/04/18 14:30:23;;;;;;;5.05;2.47;;;;;;;;;;5013493;28;20042;-66
2022/04/18 14:32:49;;;;;;;2.65;2.30;;;;;;;;;;5013123;28;20081;-65
2022/04/18 14:35:15;;;;;;;2.58;2.17;;;;;;;;;;5013421;28;20139;-66
2022/04/18 14:37:42;;;;;;;5.10;2.83;;;;;;;;;;5012992;28;20052;-66
2022/04/18 14:40:08;;;;;;;6.68;3.13;;;;;;;;;;5018007;28;20064;-66
2022/04/18 14:42:35;;;;;;;6.40;2.88;;;;;;;;;;5032848;28;20480;-66
2022/04/18 14:45:02;;;;;;;3.97;2.42;;;;;;;;;;5033052;28;20081;-66
2022/04/18 14:47:28;;;;;;;5.88;2.20;;;;;;;;;;5015859;28;20042;-65
2022/04/18 14:49:54;;;;;;;4.47;2.40;;;;;;;;;;5013017;28;20053;-65
2022/04/18 14:52:22;;;;;;;7.28;2.85;;;;;;;;;;5015917;28;20155;-65
2022/04/18 14:54:49;;;;;;;5.57;2.45;;;;;;;;;;5016559;28;20124;-65
2022/04/18 14:57:15;;;;;;;4.90;2.40;;;;;;;;;;5016552;28;20092;-67
2022/04/18 14:59:41;;;;;;;4.43;2.50;;;;;;;;;;5016900;28;20512;-65
2022/04/18 15:02:07;;;;;;;5.45;2.53;;;;;;;;;;5016713;28;20049;-65
2022/04/18 15:04:34;;;;;;;4.70;2.40;;;;;;;;;;5015955;28;20046;-65
2022/04/18 15:07:00;;;;;;;4.75;2.60;;;;;;;;;;5016640;28;20054;-66
2022/04/18 15:09:26;;;;;;;3.17;2.28;;;;;;;;;;5016472;28;20054;-65
2022/04/18 15:11:52;;;;;;;6.22;2.40;;;;;;;;;;5016526;28;20046;-66
2022/04/18 15:14:18;;;;;;;4.32;2.22;;;;;;;;;;5014718;28;20378;-66